Kahoka, Missouri
Current Conditions -  °F | °C
As of 12:15 PM on Wednesday 28 Jan 2015 (Local Time) from KEOK Reporting Station
Clear Clear  
Wind Chill:   Ceiling: Unl
Heat Index:   Visibility: 10mi
Dew Point:   Wind: 21mph
Humidity: 70%   Direction: 140°SE
Pressure: 29.99"   Gusts: 29mph
Location:  40.42°N, 91.72°W
Report Text: KEOK 281815Z AUTO 14018G25KT 10SM CLR 05/M00 A2999 RMK AO2
Loading
Personal Weather Stations






























Interactive Weather Map New forecast layout! Learn more

10-Day Weather Forecast

Advertisements
Track Severe Weather on mobile